Hay River, Canada
Current Conditions -  °F | °C
As of 2:00 AM on Thursday 27 Nov 2014 (Local Time) from CYHY Reporting Station
Few Clouds Few Clouds  
Wind Chill: -28°   Ceiling: Unl
Heat Index: -8°   Visibility: 15mi
Dew Point: -13°   Wind: 14mph
Humidity: 77%   Direction: 310°NW
Pressure: 30.55"   Gusts: NA
Location:  60.82°N, 115.78°W
Report Text: CYHY 270900Z 31012KT 15SM FEW230 M22/M25 A3055 RMK CI1 SLP370
Loading
Personal Weather Stations






























Interactive Weather Map New forecast layout! Learn more

10-Day Weather Forecast

Advertisements
Track Severe Weather on mobile